Time;durP1;ratioP1;P1;durP2;ratioP2;P2;SDS_P1;SDS_P2;PMS_P1;PMS_P2;Temp;Humidity;BMP_temperature;BMP_pressure;BME280_temperature;BME280_humidity;BME280_pressure;Samples;Min_cycle;Max_cycle;Signal;HPM_P1;HPM_P2
2024/01/24 00:00:48;;;;;;;;;7.00;5.00;;;;;1.53;93.81;100933.61;112915;240;40163;-55
2024/01/24 00:03:46;;;;;;;;;5.00;4.00;;;;;1.55;94.07;100939.84;112859;240;39744;-55
2024/01/24 00:06:26;;;;;;;;;7.00;5.25;;;;;1.58;93.95;100942.23;112881;240;39293;-52
2024/01/24 00:09:04;;;;;;;;;7.00;5.00;;;;;1.57;94.00;100945.20;112805;240;40006;-52
2024/01/24 00:11:43;;;;;;;;;12.00;8.00;;;;;1.53;94.02;100934.28;112848;240;41050;-53
2024/01/24 00:14:17;;;;;;;;;7.75;6.00;;;;;1.48;93.94;100931.85;112854;240;40225;-53
2024/01/24 00:16:53;;;;;;;;;6.00;4.00;;;;;1.42;94.10;100942.11;112843;240;39774;-53
2024/01/24 00:19:32;;;;;;;;;4.33;3.67;;;;;1.41;94.01;100940.26;112846;240;40313;-54
2024/01/24 00:22:15;;;;;;;;;11.25;8.25;;;;;1.39;94.16;100937.02;112816;240;39847;-55
2024/01/24 00:24:57;;;;;;;;;5.75;5.00;;;;;1.38;94.26;100935.52;112817;240;40119;-54
2024/01/24 00:27:40;;;;;;;;;9.67;6.67;;;;;1.41;94.39;100926.05;112789;240;39577;-54
2024/01/24 00:30:16;;;;;;;;;5.25;4.00;;;;;1.45;94.33;100926.27;112812;240;41010;-51
2024/01/24 00:32:59;;;;;;;;;6.00;5.00;;;;;1.51;94.60;100927.89;112804;240;40055;-51
2024/01/24 00:35:38;;;;;;;;;8.00;6.00;;;;;1.62;94.76;100926.69;112850;240;39673;-51
2024/01/24 00:38:21;;;;;;;;;8.00;5.00;;;;;1.67;94.76;100929.52;112790;240;40827;-51
2024/01/24 00:40:57;;;;;;;;;4.00;4.00;;;;;1.63;94.67;100921.98;112809;240;39730;-52
2024/01/24 00:43:35;;;;;;;;;3.00;2.00;;;;;1.60;94.67;100920.27;112801;240;39546;-52
2024/01/24 00:46:20;;;;;;;;;7.50;5.00;;;;;1.58;94.76;100915.98;112787;240;40776;-56
2024/01/24 00:49:09;;;;;;;;;5.00;4.00;;;;;1.59;94.77;100921.27;112733;240;39574;-52
2024/01/24 00:51:45;;;;;;;;;7.75;5.00;;;;;1.63;94.88;100931.37;112766;240;40347;-52
2024/01/24 00:54:23;;;;;;;;;6.00;5.00;;;;;1.67;94.91;100927.86;112742;240;41152;-54
2024/01/24 00:57:02;;;;;;;;;5.50;5.00;;;;;1.72;94.88;100928.39;112736;240;39997;-56
2024/01/24 00:59:42;;;;;;;;;10.00;7.00;;;;;1.73;94.89;100922.22;112740;240;40125;-52
2024/01/24 01:02:17;;;;;;;;;7.00;5.00;;;;;1.79;94.92;100904.23;112715;240;39735;-52
2024/01/24 01:05:01;;;;;;;;;6.75;5.00;;;;;1.86;95.00;100888.76;112765;240;39454;-50
2024/01/24 01:07:44;;;;;;;;;7.00;6.00;;;;;1.90;95.01;100889.65;112820;240;39023;-51
2024/01/24 01:10:20;;;;;;;;;4.00;3.00;;;;;1.92;95.13;100888.14;112878;240;39846;-55
2024/01/24 01:12:59;;;;;;;;;8.25;6.00;;;;;1.94;95.27;100882.61;112865;240;40104;-55
2024/01/24 01:15:39;;;;;;;;;8.50;6.25;;;;;1.94;95.22;100866.98;112933;240;39491;-52
2024/01/24 01:18:18;;;;;;;;;3.00;2.25;;;;;1.94;95.28;100861.60;112854;240;39199;-52
2024/01/24 01:21:08;;;;;;;;;7.25;6.00;;;;;1.92;95.17;100848.50;112858;240;39302;-52
2024/01/24 01:24:02;;;;;;;;;7.50;6.25;;;;;1.90;95.23;100833.93;112777;240;40712;-52
2024/01/24 01:26:41;;;;;;;;;7.33;4.33;;;;;1.86;95.10;100824.95;112782;240;39186;-52
2024/01/24 01:29:19;;;;;;;;;5.00;4.00;;;;;1.86;95.02;100798.05;112789;240;40592;-53
2024/01/24 01:31:56;;;;;;;;;10.00;5.50;;;;;1.90;95.38;100788.30;112778;240;39800;-53
2024/01/24 01:34:32;;;;;;;;;8.00;6.00;;;;;1.93;95.44;100776.46;112833;240;39579;-55
2024/01/24 01:37:15;;;;;;;;;4.67;4.00;;;;;1.99;95.45;100767.61;112772;240;39145;-55
2024/01/24 01:39:55;;;;;;;;;9.00;6.00;;;;;2.09;95.33;100760.63;112826;240;40183;-54
2024/01/24 01:42:30;;;;;;;;;5.00;4.00;;;;;2.13;95.36;100763.27;112857;240;39708;-54
2024/01/24 01:45:09;;;;;;;;;9.00;7.00;;;;;2.16;95.19;100757.48;112815;240;39536;-51
2024/01/24 01:47:49;;;;;;;;;8.00;6.00;;;;;2.20;95.15;100751.45;112848;240;39612;-51
2024/01/24 01:50:28;;;;;;;;;8.00;5.00;;;;;2.24;95.19;100756.62;112865;240;39987;-51
2024/01/24 01:53:04;;;;;;;;;8.00;6.00;;;;;2.24;95.00;100754.51;112857;240;39405;-51
2024/01/24 01:55:41;;;;;;;;;5.75;4.00;;;;;2.25;95.08;100749.64;112882;240;39663;-51
2024/01/24 01:58:20;;;;;;;;;5.25;3.00;;;;;2.24;94.97;100744.74;112902;240;40898;-51
2024/01/24 02:00:59;;;;;;;;;4.00;3.00;;;;;2.23;94.91;100728.52;112826;240;39672;-52
2024/01/24 02:03:37;;;;;;;;;8.00;6.00;;;;;2.24;94.88;100724.96;112880;240;39678;-52
2024/01/24 02:06:13;;;;;;;;;7.00;6.00;;;;;2.27;94.82;100718.02;112892;240;39988;-52
2024/01/24 02:08:51;;;;;;;;;5.00;4.00;;;;;2.29;94.79;100721.98;112846;240;40443;-52
2024/01/24 02:11:27;;;;;;;;;6.00;4.00;;;;;2.35;94.77;100722.98;112850;240;40125;-55
2024/01/24 02:14:12;;;;;;;;;5.00;4.00;;;;;2.43;94.71;100720.42;112878;240;39369;-53
2024/01/24 02:16:56;;;;;;;;;6.00;4.00;;;;;2.52;94.50;100724.27;112775;240;40891;-54
2024/01/24 02:19:36;;;;;;;;;7.00;5.00;;;;;2.55;94.49;100713.49;112766;240;41612;-54
2024/01/24 02:22:17;;;;;;;;;6.00;5.00;;;;;2.58;94.26;100704.48;112773;240;40070;-55
2024/01/24 02:24:53;;;;;;;;;5.00;4.00;;;;;2.60;94.14;100694.02;112801;240;39058;-54
2024/01/24 02:27:32;;;;;;;;;6.00;5.00;;;;;2.59;93.99;100693.22;112783;240;39196;-54
2024/01/24 02:30:10;;;;;;;;;6.00;3.25;;;;;2.57;93.89;100687.92;112797;240;39567;-54
2024/01/24 02:32:48;;;;;;;;;4.25;3.00;;;;;2.50;93.71;100674.66;112788;240;39062;-54
2024/01/24 02:35:27;;;;;;;;;7.00;5.00;;;;;2.46;93.63;100663.63;112802;240;40028;-51
2024/01/24 02:38:10;;;;;;;;;5.00;4.00;;;;;2.38;93.64;100655.02;112778;240;40771;-51
2024/01/24 02:40:51;;;;;;;;;5.00;3.50;;;;;2.31;93.41;100648.34;112840;240;40304;-51
2024/01/24 02:43:30;;;;;;;;;5.00;3.33;;;;;2.26;93.42;100640.31;112728;240;40318;-50
2024/01/24 02:46:07;;;;;;;;;4.00;3.50;;;;;2.20;93.44;100631.73;112816;241;41649;-52
2024/01/24 02:48:40;;;;;;;;;6.75;5.00;;;;;2.22;93.53;100632.98;112791;241;41357;-52
2024/01/24 02:51:23;;;;;;;;;5.25;3.00;;;;;2.27;93.51;100627.75;112846;241;39799;-51
2024/01/24 02:54:07;;;;;;;;;2.67;1.67;;;;;2.33;93.58;100622.77;112851;241;39557;-51
2024/01/24 02:56:46;;;;;;;;;4.00;2.00;;;;;2.40;93.48;100614.33;112829;241;41505;-51
2024/01/24 02:59:23;;;;;;;;;5.00;3.00;;;;;2.47;93.40;100611.45;112838;241;39916;-52
2024/01/24 03:02:03;;;;;;;;;6.00;5.00;;;;;2.49;93.41;100613.95;112788;241;39989;-52
2024/01/24 03:04:46;;;;;;;;;8.00;6.00;;;;;2.51;93.29;100596.20;112788;241;39582;-51
2024/01/24 03:07:28;;;;;;;;;4.00;3.00;;;;;2.50;93.07;100579.71;112821;241;39714;-51
2024/01/24 03:10:08;;;;;;;;;4.00;4.00;;;;;2.53;92.97;100583.74;112849;241;40344;-51
2024/01/24 03:12:45;;;;;;;;;7.00;5.00;;;;;2.56;92.95;100568.86;112797;241;40453;-51
2024/01/24 03:15:19;;;;;;;;;5.00;4.00;;;;;2.59;92.76;100549.44;112806;241;39706;-54
2024/01/24 03:17:58;;;;;;;;;5.00;4.25;;;;;2.58;92.55;100537.03;112818;241;39565;-55
2024/01/24 03:20:39;;;;;;;;;4.00;3.00;;;;;2.54;92.51;100526.77;112806;241;39159;-51
2024/01/24 03:23:18;;;;;;;;;5.00;3.50;;;;;2.46;92.25;100516.98;112815;241;39863;-51
2024/01/24 03:25:56;;;;;;;;;5.25;3.25;;;;;2.39;92.11;100514.70;112811;241;38920;-51
2024/01/24 03:28:35;;;;;;;;;5.50;4.00;;;;;2.33;92.00;100519.52;112779;241;39799;-50
2024/01/24 03:31:18;;;;;;;;;5.00;4.00;;;;;2.27;92.02;100512.24;112819;241;39981;-51
2024/01/24 03:33:56;;;;;;;;;3.00;2.00;;;;;2.22;92.04;100502.00;112818;241;41133;-51
2024/01/24 03:36:33;;;;;;;;;4.00;3.00;;;;;2.22;91.92;100507.90;112774;241;41325;-55
2024/01/24 03:39:11;;;;;;;;;3.00;2.00;;;;;2.26;91.94;100506.13;112810;241;40872;-54
2024/01/24 03:41:50;;;;;;;;;5.00;4.00;;;;;2.27;91.88;100510.98;112786;241;40368;-55
2024/01/24 03:44:28;;;;;;;;;5.00;4.00;;;;;2.28;91.86;100510.58;112824;241;39999;-54
2024/01/24 03:47:03;;;;;;;;;6.25;5.00;;;;;2.31;91.88;100493.95;112811;241;40795;-55
2024/01/24 03:49:42;;;;;;;;;6.00;4.00;;;;;2.36;91.83;100488.55;112824;241;39577;-51
2024/01/24 03:52:19;;;;;;;;;5.00;3.00;;;;;2.39;91.66;100484.48;112760;241;40026;-51
2024/01/24 03:54:56;;;;;;;;;4.33;3.33;;;;;2.43;91.57;100476.21;112828;241;40954;-51
2024/01/24 03:57:36;;;;;;;;;3.00;3.00;;;;;2.45;91.40;100459.70;112803;241;40478;-51
2024/01/24 04:00:16;;;;;;;;;5.00;4.00;;;;;2.47;91.32;100449.73;112815;241;41036;-51
2024/01/24 04:02:52;;;;;;;;;3.00;3.00;;;;;2.49;91.28;100457.83;112839;241;39144;-51
2024/01/24 04:05:34;;;;;;;;;2.50;2.00;;;;;2.49;91.15;100455.75;112803;241;39593;-53
2024/01/24 04:08:11;;;;;;;;;4.25;3.00;;;;;2.48;90.98;100445.01;112782;241;39370;-53
2024/01/24 04:10:48;;;;;;;;;3.67;3.00;;;;;2.46;90.95;100435.40;112805;241;40865;-50
2024/01/24 04:13:31;;;;;;;;;4.00;4.00;;;;;2.46;90.80;100425.95;112786;241;39130;-50
2024/01/24 04:16:08;;;;;;;;;4.00;3.00;;;;;2.48;90.71;100417.98;112816;241;40361;-51
2024/01/24 04:18:44;;;;;;;;;6.00;4.00;;;;;2.52;90.56;100404.79;112803;241;40893;-51
2024/01/24 04:21:24;;;;;;;;;6.33;3.67;;;;;2.57;90.25;100398.31;112811;241;40533;-50
2024/01/24 04:24:03;;;;;;;;;5.00;3.25;;;;;2.62;90.39;100388.25;112814;241;40423;-52
2024/01/24 04:26:39;;;;;;;;;11.33;5.00;;;;;2.64;90.14;100379.18;112787;241;40838;-53
2024/01/24 04:29:22;;;;;;;;;6.00;3.00;;;;;2.69;90.22;100368.09;112788;241;39602;-53
2024/01/24 04:32:01;;;;;;;;;6.00;5.00;;;;;2.71;89.96;100356.25;112783;241;40222;-53
2024/01/24 04:34:36;;;;;;;;;6.00;4.00;;;;;2.77;89.74;100346.30;112833;241;39758;-51
2024/01/24 04:37:11;;;;;;;;;6.00;4.75;;;;;2.82;89.45;100341.39;112782;241;40056;-50
2024/01/24 04:39:48;;;;;;;;;5.00;4.00;;;;;2.86;89.30;100338.56;112818;241;39288;-50
2024/01/24 04:42:34;;;;;;;;;5.00;2.33;;;;;2.87;89.05;100332.93;112797;241;39465;-50
2024/01/24 04:45:15;;;;;;;;;5.00;4.00;;;;;2.87;88.95;100333.45;112812;241;39982;-51
2024/01/24 04:47:58;;;;;;;;;4.00;3.00;;;;;2.85;89.05;100334.04;112790;241;39599;-50
2024/01/24 04:50:35;;;;;;;;;4.50;4.00;;;;;2.82;88.98;100318.85;112805;241;39671;-54
2024/01/24 04:53:18;;;;;;;;;4.00;4.00;;;;;2.80;88.80;100307.32;112795;241;40535;-55
2024/01/24 04:56:01;;;;;;;;;3.00;2.00;;;;;2.78;88.62;100296.28;112841;241;40925;-52
2024/01/24 04:58:37;;;;;;;;;5.00;3.00;;;;;2.75;88.54;100288.13;112759;241;39522;-52
2024/01/24 05:01:15;;;;;;;;;4.50;4.00;;;;;2.75;88.45;100281.40;112801;241;39790;-55
2024/01/24 05:03:58;;;;;;;;;5.00;3.00;;;;;2.76;88.41;100272.30;112784;241;39489;-55
2024/01/24 05:06:40;;;;;;;;;5.00;4.00;;;;;2.78;88.27;100263.36;112439;241;404020;-56
2024/01/24 05:09:22;;;;;;;;;7.67;5.00;;;;;2.79;88.14;100262.36;112810;241;39432;-52
2024/01/24 05:12:02;;;;;;;;;4.75;4.00;;;;;2.84;88.02;100256.20;112771;241;40785;-52
2024/01/24 05:14:42;;;;;;;;;6.25;5.00;;;;;2.88;87.81;100251.50;112826;241;40595;-51
2024/01/24 05:17:24;;;;;;;;;5.75;4.00;;;;;2.92;87.76;100254.33;112780;241;40418;-52
2024/01/24 05:20:06;;;;;;;;;8.00;5.00;;;;;2.94;87.73;100244.24;112777;241;39715;-53
2024/01/24 05:22:41;;;;;;;;;6.00;4.00;;;;;2.90;87.74;100235.34;112781;241;39974;-52
2024/01/24 05:25:20;;;;;;;;;3.33;2.67;;;;;2.86;87.55;100230.19;112821;241;40183;-54
2024/01/24 05:28:05;;;;;;;;;6.00;3.50;;;;;2.84;87.51;100229.36;112797;241;39972;-53
2024/01/24 05:30:51;;;;;;;;;4.25;4.00;;;;;2.81;87.39;100222.20;112804;241;40469;-55
2024/01/24 05:33:29;;;;;;;;;3.00;3.00;;;;;2.77;87.22;100202.81;112769;241;40398;-54
2024/01/24 05:36:05;;;;;;;;;4.00;3.00;;;;;2.76;87.21;100197.95;112810;241;39597;-54
2024/01/24 05:38:44;;;;;;;;;5.00;4.00;;;;;2.73;87.40;100185.27;112782;241;39340;-55
2024/01/24 05:41:27;;;;;;;;;5.00;3.67;;;;;2.73;87.10;100165.31;112773;241;39758;-54
2024/01/24 05:44:01;;;;;;;;;3.00;3.00;;;;;2.75;87.30;100161.57;112805;241;39834;-53
2024/01/24 05:46:36;;;;;;;;;6.00;4.00;;;;;2.81;86.98;100147.36;112810;241;39924;-53
2024/01/24 05:49:21;;;;;;;;;5.00;4.00;;;;;2.83;86.88;100131.80;112831;241;39577;-51
2024/01/24 05:52:00;;;;;;;;;4.00;4.00;;;;;2.86;86.73;100127.65;112772;241;38926;-52
2024/01/24 05:54:44;;;;;;;;;5.00;4.00;;;;;2.89;86.90;100115.58;112828;241;40201;-54
2024/01/24 05:57:24;;;;;;;;;7.00;5.00;;;;;2.88;87.04;100107.34;112792;241;40189;-55
2024/01/24 06:00:00;;;;;;;;;3.50;3.00;;;;;2.91;86.81;100123.95;112793;241;39949;-51
2024/01/24 06:02:39;;;;;;;;;5.00;3.00;;;;;2.90;86.85;100128.95;112745;241;39486;-51
2024/01/24 06:05:19;;;;;;;;;4.50;2.50;;;;;2.90;86.93;100130.30;112793;241;39860;-54
2024/01/24 06:08:03;;;;;;;;;5.00;4.00;;;;;2.90;86.93;100125.77;112791;241;40349;-54
2024/01/24 06:10:45;;;;;;;;;4.50;4.00;;;;;2.89;86.83;100117.33;112776;241;39824;-51
2024/01/24 06:13:20;;;;;;;;;3.75;3.25;;;;;2.90;86.91;100118.73;112829;241;40742;-51
2024/01/24 06:15:59;;;;;;;;;5.00;4.00;;;;;2.90;87.34;100107.62;112811;241;39274;-52
2024/01/24 06:18:36;;;;;;;;;4.00;3.00;;;;;2.94;87.81;100103.77;112764;241;40120;-52
2024/01/24 06:21:12;;;;;;;;;5.33;4.00;;;;;2.94;88.52;100095.00;112826;241;39568;-52
2024/01/24 06:23:51;;;;;;;;;4.00;3.00;;;;;2.95;89.00;100090.93;112780;241;39358;-53
2024/01/24 06:26:30;;;;;;;;;4.00;3.00;;;;;2.90;89.46;100082.93;112816;241;40006;-55
2024/01/24 06:29:08;;;;;;;;;5.75;4.00;;;;;2.88;90.01;100071.42;112807;241;39946;-53
2024/01/24 06:31:50;;;;;;;;;8.00;5.00;;;;;2.84;90.23;100069.64;112768;241;40954;-53
2024/01/24 06:34:30;;;;;;;;;6.00;5.00;;;;;2.82;90.51;100063.59;112816;241;39977;-52
2024/01/24 06:37:06;;;;;;;;;6.00;5.00;;;;;2.80;90.56;100062.56;112854;241;39342;-52
2024/01/24 06:39:46;;;;;;;;;7.00;4.50;;;;;2.76;91.23;100052.88;112843;241;40032;-55
2024/01/24 06:42:28;;;;;;;;;6.00;5.00;;;;;2.68;91.42;100047.77;112785;241;39131;-55
2024/01/24 06:45:09;;;;;;;;;6.25;5.00;;;;;2.60;91.80;100036.30;112786;241;39602;-56
2024/01/24 06:47:44;;;;;;;;;7.00;6.00;;;;;2.55;91.91;100022.15;112787;241;39524;-56
2024/01/24 06:50:25;;;;;;;;;6.00;5.00;;;;;2.51;91.85;100017.23;112801;241;40091;-53
2024/01/24 06:53:01;;;;;;;;;7.00;4.00;;;;;2.45;92.35;100001.73;112770;241;39724;-52
2024/01/24 06:55:38;;;;;;;;;7.00;5.00;;;;;2.39;92.97;99995.82;112861;241;38485;-56
2024/01/24 06:58:18;;;;;;;;;7.00;5.00;;;;;2.34;93.02;99977.30;112784;241;41365;-56
2024/01/24 07:00:59;;;;;;;;;6.00;5.00;;;;;2.36;93.21;99949.77;112823;241;39408;-53
2024/01/24 07:03:38;;;;;;;;;5.25;5.00;;;;;2.40;93.24;99920.92;112761;241;39479;-53
2024/01/24 07:06:19;;;;;;;;;7.00;5.25;;;;;2.40;93.87;99896.23;112803;241;39213;-58
2024/01/24 07:08:56;;;;;;;;;8.00;6.00;;;;;2.43;93.95;99873.59;112779;241;39127;-55
2024/01/24 07:11:41;;;;;;;;;8.33;6.00;;;;;2.44;93.99;99864.27;112756;241;39047;-55
2024/01/24 07:14:24;;;;;;;;;5.00;4.00;;;;;2.42;94.31;99850.71;112826;241;39772;-53
2024/01/24 07:17:08;;;;;;;;;9.00;6.50;;;;;2.38;94.75;99838.48;112792;241;39785;-53
2024/01/24 07:19:46;;;;;;;;;4.75;4.00;;;;;2.37;94.66;99828.77;112806;241;40731;-54
2024/01/24 07:22:25;;;;;;;;;8.00;6.00;;;;;2.39;94.84;99812.61;112829;241;39687;-54
2024/01/24 07:25:06;;;;;;;;;7.50;5.25;;;;;2.40;94.87;99803.79;112792;241;39746;-51
2024/01/24 07:27:44;;;;;;;;;6.00;5.00;;;;;2.46;95.03;99805.60;112793;241;40015;-50
2024/01/24 07:30:27;;;;;;;;;10.00;7.00;;;;;2.47;94.92;99808.10;112807;241;40007;-52
2024/01/24 07:33:05;;;;;;;;;8.33;6.00;;;;;2.56;94.96;99804.77;112788;241;41174;-52
2024/01/24 07:35:45;;;;;;;;;8.00;6.00;;;;;2.58;94.90;99810.63;112841;241;39501;-51
2024/01/24 07:38:24;;;;;;;;;9.25;5.50;;;;;2.55;95.19;99801.11;112782;241;40801;-52
2024/01/24 07:40:58;;;;;;;;;5.00;4.00;;;;;2.56;95.20;99794.55;112821;241;39748;-55
2024/01/24 07:43:41;;;;;;;;;6.00;5.00;;;;;2.53;95.38;99783.19;112770;241;39506;-56
2024/01/24 07:46:17;;;;;;;;;4.00;3.67;;;;;2.49;95.45;99778.84;112803;241;39168;-56
2024/01/24 07:48:59;;;;;;;;;6.00;4.00;;;;;2.51;95.56;99762.44;112808;241;40406;-56
2024/01/24 07:51:41;;;;;;;;;6.00;5.00;;;;;2.55;95.77;99759.64;112785;241;40382;-52
2024/01/24 07:54:22;;;;;;;;;10.00;6.00;;;;;2.60;95.80;99744.77;112815;241;40544;-52
2024/01/24 07:57:04;;;;;;;;;8.50;7.00;;;;;2.64;96.01;99727.27;112772;241;39221;-53
2024/01/24 07:59:41;;;;;;;;;7.00;5.00;;;;;2.66;96.29;99708.42;112820;241;39399;-54
2024/01/24 08:02:20;;;;;;;;;8.25;7.00;;;;;2.63;96.63;99711.02;112776;241;39223;-54
2024/01/24 08:05:02;;;;;;;;;6.00;5.00;;;;;2.66;96.32;99702.70;112749;241;41397;-52
2024/01/24 08:07:40;;;;;;;;;7.00;6.00;;;;;2.67;96.49;99680.75;112774;241;40043;-52
2024/01/24 08:10:19;;;;;;;;;9.00;5.00;;;;;2.70;96.82;99664.77;112822;241;39730;-57
2024/01/24 08:12:58;;;;;;;;;3.75;3.00;;;;;2.71;96.87;99671.67;112790;241;39823;-57
2024/01/24 08:15:41;;;;;;;;;4.00;3.00;;;;;2.70;97.24;99669.13;112827;241;39878;-56
2024/01/24 08:18:25;;;;;;;;;6.00;4.00;;;;;2.69;97.20;99669.49;112763;241;39034;-56
2024/01/24 08:21:00;;;;;;;;;6.00;4.00;;;;;2.73;97.24;99665.05;112807;241;40583;-56
2024/01/24 08:23:40;;;;;;;;;7.67;5.00;;;;;2.79;97.49;99646.48;112784;241;38878;-56
2024/01/24 08:26:26;;;;;;;;;6.00;4.50;;;;;2.81;98.02;99641.11;112809;241;40252;-53
2024/01/24 08:29:06;;;;;;;;;8.00;6.00;;;;;2.87;97.85;99627.80;112784;241;39498;-55
2024/01/24 08:31:50;;;;;;;;;6.75;4.75;;;;;2.92;98.11;99615.89;112816;241;39979;-57
2024/01/24 08:34:37;;;;;;;;;6.00;4.75;;;;;2.97;98.06;99620.38;112799;241;40379;-54
2024/01/24 08:37:18;;;;;;;;;8.00;6.00;;;;;2.96;98.38;99615.62;112780;241;40093;-53
2024/01/24 08:40:00;;;;;;;;;3.00;2.75;;;;;3.01;98.39;99599.51;112803;241;39922;-57
2024/01/24 08:42:37;;;;;;;;;5.00;4.00;;;;;3.03;98.45;99601.86;112788;241;39683;-57
2024/01/24 08:45:14;;;;;;;;;9.00;7.00;;;;;3.05;98.29;99590.09;112823;241;39960;-56
2024/01/24 08:47:53;;;;;;;;;4.00;3.00;;;;;2.99;98.23;99594.58;112794;241;38643;-56
2024/01/24 08:50:33;;;;;;;;;5.00;4.00;;;;;2.96;98.07;99578.29;112811;241;39212;-55
2024/01/24 08:53:13;;;;;;;;;4.00;4.00;;;;;2.93;98.92;99576.45;112721;241;39715;-54
2024/01/24 08:55:55;;;;;;;;;10.50;8.25;;;;;2.96;98.77;99563.76;112831;241;40691;-53
2024/01/24 08:58:32;;;;;;;;;5.00;4.00;;;;;3.01;99.28;99561.23;112780;241;39422;-53
2024/01/24 09:01:09;;;;;;;;;8.00;5.00;;;;;3.02;99.13;99561.24;112850;241;39566;-58
2024/01/24 09:03:47;;;;;;;;;4.33;4.00;;;;;3.08;99.33;99565.40;112794;241;40473;-58
2024/01/24 09:06:30;;;;;;;;;7.00;4.00;;;;;3.16;99.40;99556.27;112818;241;41008;-54
2024/01/24 09:09:13;;;;;;;;;7.25;5.00;;;;;3.19;99.73;99548.81;112787;241;41166;-56
2024/01/24 09:11:52;;;;;;;;;8.00;6.50;;;;;3.25;99.54;99551.30;112769;241;40437;-56
2024/01/24 09:14:30;;;;;;;;;8.00;5.00;;;;;3.29;99.56;99549.15;112797;241;39574;-53
2024/01/24 09:17:07;;;;;;;;;10.50;6.00;;;;;3.38;99.75;99546.27;112831;241;39379;-53
2024/01/24 09:19:46;;;;;;;;;8.25;6.25;;;;;3.44;100.00;99531.14;112808;241;39567;-54
2024/01/24 09:22:27;;;;;;;;;4.00;4.00;;;;;3.49;100.00;99524.23;112791;241;39657;-53
2024/01/24 09:25:05;;;;;;;;;3.00;3.00;;;;;3.50;100.00;99518.45;112807;241;40258;-55
2024/01/24 09:27:41;;;;;;;;;4.00;3.00;;;;;3.49;99.92;99514.39;112774;241;40122;-56
2024/01/24 09:30:17;;;;;;;;;5.00;4.00;;;;;3.49;100.00;99497.33;112824;241;39883;-53
2024/01/24 09:32:56;;;;;;;;;9.00;5.25;;;;;3.51;100.00;99496.95;112802;241;39437;-53
2024/01/24 09:35:31;;;;;;;;;5.00;4.00;;;;;3.50;100.00;99498.14;112775;241;40276;-55
2024/01/24 09:38:08;;;;;;;;;5.00;4.00;;;;;3.54;100.00;99492.67;112824;241;39688;-55
2024/01/24 09:40:49;;;;;;;;;4.00;4.00;;;;;3.60;100.00;99476.05;112791;241;40070;-57
2024/01/24 09:43:31;;;;;;;;;2.00;2.00;;;;;3.68;100.00;99463.25;112783;241;40877;-57
2024/01/24 09:46:15;;;;;;;;;5.00;4.00;;;;;3.75;100.00;99452.50;112819;241;39787;-54
2024/01/24 09:48:54;;;;;;;;;4.25;4.00;;;;;3.80;100.00;99457.27;112783;241;39690;-54
2024/01/24 09:51:33;;;;;;;;;9.00;6.00;;;;;3.86;100.00;99453.76;112786;241;40635;-54
2024/01/24 09:54:09;;;;;;;;;4.00;3.00;;;;;3.90;100.00;99452.54;112793;241;39550;-56
2024/01/24 09:56:50;;;;;;;;;6.00;4.00;;;;;3.99;100.00;99447.77;112789;241;39797;-57
2024/01/24 09:59:29;;;;;;;;;6.25;5.00;;;;;4.08;100.00;99441.77;112837;241;39754;-54
2024/01/24 10:02:13;;;;;;;;;5.00;4.00;;;;;4.13;100.00;99425.16;112780;241;40533;-54
2024/01/24 10:04:52;;;;;;;;;3.00;3.00;;;;;4.17;100.00;99433.17;112806;241;40357;-57
2024/01/24 10:07:33;;;;;;;;;7.00;5.00;;;;;4.22;100.00;99446.08;112839;241;40014;-57
2024/01/24 10:10:13;;;;;;;;;4.25;3.00;;;;;4.23;100.00;99437.27;112816;241;39308;-58
2024/01/24 10:12:49;;;;;;;;;6.00;5.00;;;;;4.28;100.00;99432.83;112806;241;39932;-57
2024/01/24 10:15:36;;;;;;;;;3.67;3.00;;;;;4.35;100.00;99426.31;112800;241;38660;-53
2024/01/24 10:18:19;;;;;;;;;5.00;4.00;;;;;4.39;100.00;99418.71;112771;241;39569;-53
2024/01/24 10:21:04;;;;;;;;;5.00;4.00;;;;;4.36;100.00;99415.70;112818;241;39709;-54
2024/01/24 10:23:41;;;;;;;;;4.00;3.00;;;;;4.34;100.00;99414.13;112797;241;40061;-54
2024/01/24 10:26:24;;;;;;;;;3.00;2.25;;;;;4.37;100.00;99410.61;112814;241;40045;-57
2024/01/24 10:29:02;;;;;;;;;5.00;4.00;;;;;4.38;100.00;99404.48;112809;241;40769;-53
2024/01/24 10:31:39;;;;;;;;;4.00;4.00;;;;;4.39;100.00;99402.50;112777;241;39929;-53
2024/01/24 10:34:19;;;;;;;;;5.75;5.00;;;;;4.39;100.00;99400.37;112795;241;39973;-55
2024/01/24 10:36:59;;;;;;;;;6.75;5.00;;;;;4.42;100.00;99395.55;112750;241;41554;-57
2024/01/24 10:39:39;;;;;;;;;6.00;4.00;;;;;4.48;100.00;99383.98;112761;241;40627;-58
2024/01/24 10:42:18;;;;;;;;;6.00;5.00;;;;;4.58;100.00;99380.52;112797;241;39923;-57
2024/01/24 10:45:00;;;;;;;;;5.00;4.00;;;;;4.64;100.00;99375.17;112795;241;39716;-56
2024/01/24 10:47:37;;;;;;;;;7.00;6.00;;;;;4.69;100.00;99367.88;112769;241;40221;-56
2024/01/24 10:50:13;;;;;;;;;5.00;5.00;;;;;4.75;100.00;99359.37;112801;241;40130;-55
2024/01/24 10:52:53;;;;;;;;;6.00;5.00;;;;;4.77;100.00;99352.00;112820;241;39849;-55
2024/01/24 10:55:34;;;;;;;;;8.25;6.50;;;;;4.84;100.00;99348.70;112825;241;40143;-53
2024/01/24 10:58:13;;;;;;;;;6.00;4.00;;;;;4.89;100.00;99336.13;112802;241;39913;-53
2024/01/24 11:00:52;;;;;;;;;4.00;3.25;;;;;4.88;100.00;99316.96;112788;241;39811;-56
2024/01/24 11:03:31;;;;;;;;;7.00;4.67;;;;;4.87;100.00;99317.67;112794;241;39856;-56
2024/01/24 11:06:20;;;;;;;;;7.00;5.33;;;;;4.88;100.00;99311.73;112798;241;39642;-51
2024/01/24 11:09:07;;;;;;;;;6.00;5.00;;;;;4.92;100.00;99314.77;112826;241;39314;-54
2024/01/24 11:11:45;;;;;;;;;7.00;6.00;;;;;5.00;100.00;99315.11;112799;241;40847;-54
2024/01/24 11:14:33;;;;;;;;;6.00;4.25;;;;;5.07;100.00;99313.50;112818;241;40779;-54
2024/01/24 11:17:10;;;;;;;;;6.00;5.00;;;;;5.19;100.00;99313.65;112773;241;39794;-54
2024/01/24 11:19:50;;;;;;;;;5.00;5.00;;;;;5.28;100.00;99313.96;112786;241;41096;-52
2024/01/24 11:22:34;;;;;;;;;7.00;6.00;;;;;5.32;100.00;99315.42;112778;241;39932;-53
2024/01/24 11:25:38;;;;;;;;;7.00;6.00;;;;;5.39;100.00;99312.93;112803;241;39951;-54
2024/01/24 11:28:24;;;;;;;;;9.67;7.67;;;;;5.45;100.00;99315.95;112772;241;39308;-53
2024/01/24 11:31:08;;;;;;;;;13.00;10.00;;;;;5.48;100.00;99315.88;112794;241;39475;-51
2024/01/24 11:34:12;;;;;;;;;8.00;6.00;;;;;5.48;100.00;99313.91;112783;241;39747;-52
2024/01/24 11:36:49;;;;;;;;;8.00;6.00;;;;;5.48;100.00;99313.04;112805;241;39380;-54
2024/01/24 11:39:39;;;;;;;;;7.00;5.00;;;;;5.47;100.00;99314.27;112781;241;40734;-56
2024/01/24 11:42:43;;;;;;;;;4.75;4.00;;;;;5.53;100.00;99299.73;112772;241;40357;-56
2024/01/24 11:45:24;;;;;;;;;7.00;5.25;;;;;5.63;100.00;99302.49;112808;241;39302;-51
2024/01/24 11:48:02;;;;;;;;;9.00;7.00;;;;;5.68;100.00;99297.38;112861;241;39405;-51
2024/01/24 11:50:43;;;;;;;;;7.25;6.00;;;;;5.73;100.00;99297.45;112804;241;41051;-51
2024/01/24 11:53:23;;;;;;;;;8.00;5.67;;;;;5.84;100.00;99300.27;112806;241;39543;-51
2024/01/24 11:56:06;;;;;;;;;7.67;6.00;;;;;5.92;100.00;99302.86;112792;241;39537;-52
2024/01/24 11:58:43;;;;;;;;;7.00;6.00;;;;;5.98;100.00;99302.64;112791;241;40207;-53
2024/01/24 12:01:22;;;;;;;;;9.00;6.00;;;;;6.10;100.00;99297.67;112786;241;39355;-56
2024/01/24 12:04:01;;;;;;;;;7.50;6.00;;;;;6.19;100.00;99293.61;112814;241;40055;-55
2024/01/24 12:06:43;;;;;;;;;9.00;7.00;;;;;6.30;100.00;99292.39;112801;241;41001;-56
2024/01/24 12:09:20;;;;;;;;;8.00;6.00;;;;;6.56;100.00;99293.63;112796;241;39310;-53
2024/01/24 12:11:59;;;;;;;;;6.00;5.00;;;;;6.75;100.00;99278.79;112790;241;39694;-52
2024/01/24 12:14:39;;;;;;;;;13.25;10.00;;;;;6.88;100.00;99273.00;112801;241;39673;-52
2024/01/24 12:17:19;;;;;;;;;8.75;7.00;;;;;7.01;100.00;99278.85;112801;241;40038;-52
2024/01/24 12:20:00;;;;;;;;;8.00;6.00;;;;;7.14;100.00;99288.16;112793;241;40126;-55
2024/01/24 12:22:37;;;;;;;;;8.25;7.00;;;;;7.32;100.00;99277.35;112792;241;40697;-56
2024/01/24 12:25:16;;;;;;;;;9.00;7.00;;;;;7.54;100.00;99273.58;112794;241;39884;-56
2024/01/24 12:27:51;;;;;;;;;16.33;11.67;;;;;7.65;100.00;99269.02;112813;241;39419;-56
2024/01/24 12:30:32;;;;;;;;;11.00;9.00;;;;;7.67;100.00;99267.09;112786;241;39619;-55
2024/01/24 12:33:15;;;;;;;;;7.00;5.75;;;;;7.63;100.00;99265.90;112767;241;39578;-55